Time;durP1;ratioP1;P1;durP2;ratioP2;P2;SDS_P1;SDS_P2;PMS_P1;PMS_P2;Temp;Humidity;BMP_temperature;BMP_pressure;BME280_temperature;BME280_humidity;BME280_pressure;Samples;Min_cycle;Max_cycle;Signal;HPM_P1;HPM_P2
2023/06/02 00:01:00;;;;;;;10.63;4.55;;;14.10;99.90;;;;;;5067318;28;20397;-80
2023/06/02 00:03:30;;;;;;;8.20;4.55;;;14.00;99.90;;;;;;5069767;28;20090;-79
2023/06/02 00:05:57;;;;;;;8.63;5.00;;;13.90;99.90;;;;;;5055834;28;20033;-78
2023/06/02 00:08:23;;;;;;;12.18;5.43;;;13.90;99.90;;;;;;5055773;28;20039;-78
2023/06/02 00:10:49;;;;;;;9.20;4.78;;;13.90;99.90;;;;;;5066813;28;20033;-79
2023/06/02 00:13:15;;;;;;;13.68;5.05;;;13.90;99.90;;;;;;5059210;28;20087;-78
2023/06/02 00:15:40;;;;;;;9.23;4.53;;;13.90;99.90;;;;;;5062952;28;20031;-78
2023/06/02 00:18:07;;;;;;;9.02;5.10;;;13.70;99.90;;;;;;5060857;28;20044;-80
2023/06/02 00:20:33;;;;;;;13.18;5.07;;;13.50;99.90;;;;;;5066940;28;20516;-81
2023/06/02 00:23:01;;;;;;;10.35;5.07;;;13.50;99.90;;;;;;5067211;28;20047;-79
2023/06/02 00:25:27;;;;;;;12.48;5.00;;;13.50;99.90;;;;;;5067478;28;20029;-78
2023/06/02 00:27:53;;;;;;;11.15;4.97;;;13.50;99.90;;;;;;5066172;28;20637;-79
2023/06/02 00:30:19;;;;;;;9.48;5.13;;;13.40;99.90;;;;;;5068208;28;20039;-79
2023/06/02 00:32:45;;;;;;;8.75;4.82;;;13.40;99.90;;;;;;5065437;28;20097;-79
2023/06/02 00:35:10;;;;;;;9.50;5.13;;;13.30;99.90;;;;;;5064875;28;20112;-79
2023/06/02 00:37:36;;;;;;;10.15;5.32;;;13.20;99.90;;;;;;5066436;28;20028;-81
2023/06/02 00:40:02;;;;;;;9.63;5.07;;;13.00;99.90;;;;;;5067336;28;20037;-79
2023/06/02 00:42:28;;;;;;;9.90;5.28;;;12.90;99.90;;;;;;5066706;28;20127;-79
2023/06/02 00:44:54;;;;;;;10.35;5.05;;;13.00;99.90;;;;;;5061040;28;20107;-79
2023/06/02 00:47:19;;;;;;;11.10;4.93;;;12.90;99.90;;;;;;5054168;28;20033;-78
2023/06/02 00:49:45;;;;;;;12.43;5.10;;;12.80;99.90;;;;;;5053959;28;20067;-78
2023/06/02 00:52:13;;;;;;;9.55;4.78;;;12.80;99.90;;;;;;5048494;28;20055;-79
2023/06/02 00:54:39;;;;;;;11.70;5.35;;;12.80;99.90;;;;;;5050733;28;20056;-81
2023/06/02 00:57:06;;;;;;;13.20;5.55;;;12.70;99.90;;;;;;5066654;28;20093;-78
2023/06/02 00:59:32;;;;;;;12.32;4.93;;;12.80;99.90;;;;;;5061705;28;20052;-78
2023/06/02 01:01:57;;;;;;;10.95;5.05;;;12.80;99.90;;;;;;5061754;28;20481;-79
2023/06/02 01:04:23;;;;;;;8.98;5.15;;;12.80;99.90;;;;;;5062210;28;20037;-79
2023/06/02 01:06:50;;;;;;;8.75;5.47;;;12.80;99.90;;;;;;5067670;28;20032;-79
2023/06/02 01:09:17;;;;;;;10.18;5.22;;;12.80;99.90;;;;;;5054612;28;20028;-79
2023/06/02 01:11:44;;;;;;;9.13;5.28;;;12.80;99.90;;;;;;5047452;28;20040;-78
2023/06/02 01:14:10;;;;;;;10.85;5.50;;;12.70;99.90;;;;;;5067332;28;20393;-79
2023/06/02 01:16:38;;;;;;;11.32;4.90;;;12.60;99.90;;;;;;5065978;28;20115;-81
2023/06/02 01:19:06;;;;;;;9.77;5.03;;;12.60;99.90;;;;;;5052726;28;20466;-78
2023/06/02 01:21:37;;;;;;;9.63;5.18;;;12.50;99.90;;;;;;5050349;28;20035;-79
2023/06/02 01:24:03;;;;;;;10.52;5.80;;;12.50;99.90;;;;;;5065861;28;20036;-79
2023/06/02 01:26:34;;;;;;;10.45;5.35;;;12.30;99.90;;;;;;5068298;28;20123;-79
2023/06/02 01:29:04;;;;;;;9.95;4.97;;;12.20;99.90;;;;;;5066529;28;20048;-78
2023/06/02 01:31:35;;;;;;;10.98;4.90;;;12.10;99.90;;;;;;5066478;28;20060;-79
2023/06/02 01:34:13;;;;;;;8.85;4.82;;;12.10;99.90;;;;;;5066886;28;20996;-78
2023/06/02 01:36:41;;;;;;;10.75;5.72;;;12.10;99.90;;;;;;5066592;28;20070;-81
2023/06/02 01:39:08;;;;;;;12.63;5.88;;;12.00;99.90;;;;;;5065739;28;20110;-79
2023/06/02 01:41:37;;;;;;;9.77;5.13;;;12.00;99.90;;;;;;5064791;28;20073;-79
2023/06/02 01:44:03;;;;;;;11.45;6.15;;;11.90;99.90;;;;;;5047410;28;20492;-78
2023/06/02 01:46:29;;;;;;;13.75;5.65;;;11.90;99.90;;;;;;5050335;28;20020;-78
2023/06/02 01:48:55;;;;;;;15.02;6.10;;;11.90;99.90;;;;;;5065816;28;20388;-79
2023/06/02 01:51:21;;;;;;;13.95;6.75;;;11.90;99.90;;;;;;5067611;28;20024;-80
2023/06/02 01:53:47;;;;;;;11.85;6.20;;;11.80;99.90;;;;;;5060813;28;20094;-79
2023/06/02 01:56:13;;;;;;;11.35;6.07;;;11.80;99.90;;;;;;5064568;28;20032;-78
2023/06/02 01:58:38;;;;;;;14.52;6.70;;;11.90;99.90;;;;;;5065560;28;20443;-81
2023/06/02 02:01:04;;;;;;;12.60;5.82;;;11.90;99.90;;;;;;5064840;28;20113;-79
2023/06/02 02:03:30;;;;;;;12.85;5.47;;;12.00;99.90;;;;;;5069327;28;20497;-78
2023/06/02 02:05:56;;;;;;;9.57;5.53;;;11.90;99.90;;;;;;5068923;28;20038;-78
2023/06/02 02:08:22;;;;;;;16.30;5.57;;;11.80;99.90;;;;;;5068476;28;20035;-79
2023/06/02 02:10:48;;;;;;;13.45;6.38;;;11.70;99.90;;;;;;5064462;28;20120;-79
2023/06/02 02:13:14;;;;;;;11.27;5.43;;;11.70;99.90;;;;;;5069920;28;20028;-78
2023/06/02 02:15:39;;;;;;;14.13;6.00;;;11.70;99.90;;;;;;5058756;28;20037;-81
2023/06/02 02:18:06;;;;;;;12.77;5.47;;;11.70;99.90;;;;;;5067600;28;20028;-79
2023/06/02 02:20:32;;;;;;;12.27;5.45;;;11.70;99.90;;;;;;5069369;28;20039;-79
2023/06/02 02:22:57;;;;;;;10.85;6.28;;;11.70;99.90;;;;;;5070388;28;20025;-79
2023/06/02 02:25:23;;;;;;;14.18;5.95;;;11.60;99.90;;;;;;5069281;28;20029;-80
2023/06/02 02:27:49;;;;;;;13.25;6.28;;;11.50;99.90;;;;;;5068089;28;20024;-78
2023/06/02 02:30:15;;;;;;;11.25;5.93;;;11.40;99.90;;;;;;5060251;28;20469;-79
2023/06/02 02:32:44;;;;;;;12.93;5.88;;;11.40;99.90;;;;;;5071463;28;20099;-81
2023/06/02 02:35:10;;;;;;;10.73;5.47;;;11.50;99.90;;;;;;5069876;28;20032;-79
2023/06/02 02:37:36;;;;;;;13.18;6.70;;;11.60;99.90;;;;;;5068186;28;20039;-79
2023/06/02 02:40:03;;;;;;;11.70;5.63;;;11.60;99.90;;;;;;5053761;28;20032;-79
2023/06/02 02:42:29;;;;;;;12.30;5.85;;;11.40;99.90;;;;;;5064018;28;20385;-79
2023/06/02 02:44:55;;;;;;;10.02;5.47;;;11.20;99.90;;;;;;5062377;28;20110;-79
2023/06/02 02:47:20;;;;;;;13.52;6.07;;;11.20;99.90;;;;;;5057443;28;20516;-79
2023/06/02 02:49:47;;;;;;;15.27;5.80;;;11.10;99.90;;;;;;5052288;28;20032;-79
2023/06/02 02:52:12;;;;;;;10.18;5.65;;;11.10;99.90;;;;;;5060564;28;20389;-79
2023/06/02 02:54:38;;;;;;;10.73;5.63;;;11.10;99.90;;;;;;5066532;28;20024;-79
2023/06/02 02:57:07;;;;;;;11.05;5.72;;;11.00;99.90;;;;;;5068028;28;20684;-79
2023/06/02 02:59:33;;;;;;;10.68;5.20;;;11.00;99.90;;;;;;5054477;28;20393;-79
2023/06/02 03:01:59;;;;;;;11.10;5.70;;;10.90;99.90;;;;;;5068301;28;20036;-79
2023/06/02 03:04:25;;;;;;;10.30;5.53;;;10.90;99.90;;;;;;5055616;28;20028;-82
2023/06/02 03:06:53;;;;;;;13.70;5.35;;;10.80;99.90;;;;;;5058350;28;20021;-79
2023/06/02 03:09:19;;;;;;;10.23;5.63;;;10.80;99.90;;;;;;5050853;28;20062;-80
2023/06/02 03:11:45;;;;;;;12.60;5.90;;;10.80;99.90;;;;;;5067680;28;20086;-81
2023/06/02 03:14:11;;;;;;;15.88;5.55;;;10.70;99.90;;;;;;5063494;28;20028;-79
2023/06/02 03:16:44;;;;;;;10.10;5.47;;;10.80;99.90;;;;;;5059569;28;20102;-79
2023/06/02 03:19:13;;;;;;;11.65;5.60;;;10.80;99.90;;;;;;5057628;28;20032;-79
2023/06/02 03:21:44;;;;;;;14.52;6.28;;;10.80;99.90;;;;;;5050912;28;20029;-79
2023/06/02 03:24:17;;;;;;;12.57;6.00;;;10.60;99.90;;;;;;5067279;28;20066;-79
2023/06/02 03:26:44;;;;;;;13.50;5.93;;;10.60;99.90;;;;;;5062868;28;20044;-79
2023/06/02 03:29:13;;;;;;;11.43;5.80;;;10.60;99.90;;;;;;5050475;28;20032;-79
2023/06/02 03:31:42;;;;;;;16.45;6.35;;;10.50;99.90;;;;;;5062800;28;20028;-79
2023/06/02 03:34:08;;;;;;;9.27;5.20;;;10.30;99.90;;;;;;5066972;28;20036;-79
2023/06/02 03:36:38;;;;;;;12.75;6.05;;;10.30;99.90;;;;;;5066922;28;20376;-79
2023/06/02 03:39:09;;;;;;;13.07;6.90;;;10.30;99.90;;;;;;5061791;28;20082;-79
2023/06/02 03:41:36;;;;;;;14.07;7.22;;;10.30;99.90;;;;;;5048015;28;20049;-78
2023/06/02 03:44:03;;;;;;;11.55;6.40;;;10.40;99.90;;;;;;5053524;28;20047;-79
2023/06/02 03:46:29;;;;;;;14.98;6.95;;;10.60;99.90;;;;;;5058807;28;20487;-79
2023/06/02 03:48:55;;;;;;;14.30;6.78;;;10.60;99.90;;;;;;5049693;28;20159;-79
2023/06/02 03:51:21;;;;;;;13.55;6.65;;;10.60;99.90;;;;;;5049146;28;20162;-79
2023/06/02 03:53:48;;;;;;;11.18;6.00;;;10.70;99.90;;;;;;5063377;28;20037;-81
2023/06/02 03:56:14;;;;;;;14.18;6.45;;;10.70;99.90;;;;;;5063600;28;20051;-79
2023/06/02 03:58:40;;;;;;;12.38;6.05;;;10.50;99.90;;;;;;5052424;28;20469;-77
2023/06/02 04:01:05;;;;;;;10.95;5.70;;;10.40;99.90;;;;;;5045898;28;20032;-78
2023/06/02 04:03:36;;;;;;;13.32;5.68;;;10.30;99.90;;;;;;5060396;28;20489;-80
2023/06/02 04:06:05;;;;;;;;;;;10.40;99.90;;;;;;5050628;28;20037;-81
2023/06/02 04:08:32;;;;;;;13.88;6.15;;;10.40;99.90;;;;;;5058876;28;19947;-79
2023/06/02 04:10:58;;;;;;;12.00;6.30;;;10.50;99.90;;;;;;5067184;28;20048;-77
2023/06/02 04:13:23;;;;;;;13.32;6.32;;;10.40;99.90;;;;;;5064802;28;20033;-77
2023/06/02 04:15:49;;;;;;;12.55;5.88;;;10.40;99.90;;;;;;5047829;28;20107;-81
2023/06/02 04:18:17;;;;;;;14.38;6.95;;;10.30;99.90;;;;;;5056445;28;20047;-78
2023/06/02 04:20:43;;;;;;;12.75;6.65;;;10.40;99.90;;;;;;5067796;28;20040;-78
2023/06/02 04:23:09;;;;;;;14.63;6.72;;;10.60;99.90;;;;;;5053702;28;20157;-79
2023/06/02 04:25:35;;;;;;;12.63;6.28;;;10.80;99.90;;;;;;5050960;28;20036;-77
2023/06/02 04:28:01;;;;;;;9.93;6.05;;;11.00;99.90;;;;;;5047922;28;20033;-79
2023/06/02 04:30:26;;;;;;;14.15;6.30;;;11.20;99.90;;;;;;5054187;28;20036;-79
2023/06/02 04:32:52;;;;;;;13.63;6.00;;;11.30;99.90;;;;;;5060328;28;20029;-74
2023/06/02 04:35:18;;;;;;;16.40;6.53;;;11.40;99.90;;;;;;5058367;28;20060;-74
2023/06/02 04:37:44;;;;;;;13.40;5.95;;;11.50;99.90;;;;;;5063395;28;20461;-73
2023/06/02 04:40:10;;;;;;;10.82;6.07;;;11.50;99.90;;;;;;5065683;28;20036;-73
2023/06/02 04:42:38;;;;;;;10.95;5.97;;;11.60;99.90;;;;;;5050177;28;20091;-72
2023/06/02 04:45:11;;;;;;;12.65;6.68;;;11.60;99.90;;;;;;5058004;28;20029;-74
2023/06/02 04:47:36;;;;;;;14.18;7.22;;;11.80;99.90;;;;;;5067771;28;20028;-73
2023/06/02 04:50:02;;;;;;;19.45;7.43;;;12.00;99.90;;;;;;5059255;28;20036;-73
2023/06/02 04:52:28;;;;;;;13.10;6.53;;;12.20;99.90;;;;;;5057404;28;20064;-77
2023/06/02 04:54:53;;;;;;;14.48;6.55;;;12.30;99.90;;;;;;5060668;28;20406;-77
2023/06/02 04:57:19;;;;;;;10.77;6.15;;;12.40;99.90;;;;;;5048379;28;20048;-77
2023/06/02 04:59:45;;;;;;;14.32;6.97;;;12.40;99.90;;;;;;5057434;28;20025;-76
2023/06/02 05:02:10;;;;;;;17.10;7.45;;;12.50;99.90;;;;;;5061596;28;20261;-75
2023/06/02 05:04:36;;;;;;;15.68;6.88;;;12.60;99.90;;;;;;5062769;28;20029;-75
2023/06/02 05:07:03;;;;;;;16.95;6.95;;;12.70;99.90;;;;;;5046107;28;20040;-77
2023/06/02 05:09:29;;;;;;;13.27;6.72;;;12.80;99.90;;;;;;5055665;28;20063;-75
2023/06/02 05:11:54;;;;;;;17.50;7.43;;;12.90;99.90;;;;;;5059395;28;20092;-75
2023/06/02 05:14:20;;;;;;;15.00;7.47;;;12.90;99.90;;;;;;5057261;28;20025;-78
2023/06/02 05:16:46;;;;;;;13.70;7.30;;;13.00;99.90;;;;;;5060451;28;20529;-76
2023/06/02 05:19:11;;;;;;;16.27;7.90;;;13.20;99.90;;;;;;5064103;28;20036;-77
2023/06/02 05:21:37;;;;;;;14.70;8.13;;;13.20;99.90;;;;;;5068153;28;20036;-75
2023/06/02 05:24:03;;;;;;;15.20;8.23;;;13.20;99.90;;;;;;5060312;28;20504;-74
2023/06/02 05:26:28;;;;;;;17.83;8.55;;;13.30;99.90;;;;;;5058473;28;20504;-73
2023/06/02 05:28:54;;;;;;;17.92;8.68;;;13.20;99.90;;;;;;5066242;28;20148;-75
2023/06/02 05:31:20;;;;;;;19.67;9.68;;;13.30;99.90;;;;;;5065356;28;20036;-74
2023/06/02 05:33:45;;;;;;;19.35;9.20;;;13.60;99.90;;;;;;5067401;28;20048;-73
2023/06/02 05:36:11;;;;;;;21.55;9.45;;;13.80;99.90;;;;;;5066356;28;20032;-73
2023/06/02 05:38:42;;;;;;;18.48;8.88;;;13.90;99.90;;;;;;5070225;28;20029;-73
2023/06/02 05:41:08;;;;;;;23.48;9.77;;;14.00;99.90;;;;;;5068557;28;20052;-73
2023/06/02 05:43:34;;;;;;;19.00;9.07;;;14.20;99.90;;;;;;5071765;28;20025;-73
2023/06/02 05:46:00;;;;;;;18.63;9.40;;;14.30;99.90;;;;;;5070834;28;20385;-73
2023/06/02 05:48:25;;;;;;;18.40;8.95;;;14.40;99.90;;;;;;5071781;28;20028;-72
2023/06/02 05:50:51;;;;;;;20.88;9.55;;;14.60;99.90;;;;;;5071716;28;20028;-74
2023/06/02 05:53:16;;;;;;;18.23;8.50;;;14.70;99.90;;;;;;5070690;28;20032;-73
2023/06/02 05:55:42;;;;;;;21.27;9.43;;;14.70;99.90;;;;;;5070134;28;20031;-72
2023/06/02 05:58:08;;;;;;;17.38;8.70;;;14.90;99.90;;;;;;5068053;28;20032;-75
2023/06/02 06:00:33;;;;;;;19.73;8.90;;;14.90;99.90;;;;;;5071373;28;20068;-74
2023/06/02 06:02:59;;;;;;;19.88;9.50;;;14.90;99.90;;;;;;5070372;28;20044;-74
2023/06/02 06:05:25;;;;;;;20.55;9.85;;;14.90;99.90;;;;;;5069316;28;20111;-75
2023/06/02 06:07:51;;;;;;;24.02;9.30;;;14.90;99.90;;;;;;5069867;28;20119;-76
2023/06/02 06:10:16;;;;;;;20.73;10.18;;;15.00;99.90;;;;;;5065587;28;20028;-78
2023/06/02 06:12:42;;;;;;;22.33;10.55;;;15.00;99.90;;;;;;5069812;28;20125;-76
2023/06/02 06:15:08;;;;;;;20.88;9.98;;;15.10;99.90;;;;;;5070397;28;20031;-76
2023/06/02 06:17:34;;;;;;;20.13;9.85;;;15.20;99.90;;;;;;5069767;28;20063;-78
2023/06/02 06:20:00;;;;;;;17.83;9.73;;;15.20;99.90;;;;;;5055664;28;20111;-78
2023/06/02 06:22:26;;;;;;;24.05;9.77;;;15.40;99.90;;;;;;5060722;28;20039;-79
2023/06/02 06:24:52;;;;;;;21.83;9.48;;;15.40;99.90;;;;;;5054440;28;20033;-79
2023/06/02 06:27:18;;;;;;;22.17;9.75;;;15.50;99.90;;;;;;5065686;28;20067;-76
2023/06/02 06:29:43;;;;;;;21.50;9.40;;;15.60;99.90;;;;;;5051989;28;20043;-81
2023/06/02 06:32:09;;;;;;;19.75;10.60;;;15.60;99.90;;;;;;5051488;28;20090;-77
2023/06/02 06:34:34;;;;;;;19.83;9.80;;;15.60;99.90;;;;;;5061606;28;20106;-83
2023/06/02 06:37:00;;;;;;;19.45;9.80;;;15.70;99.90;;;;;;5066731;28;20028;-72
2023/06/02 06:39:26;;;;;;;18.23;9.20;;;15.80;99.90;;;;;;5058617;28;20039;-75
2023/06/02 06:41:51;;;;;;;18.60;9.63;;;16.00;99.90;;;;;;5051595;28;20045;-76
2023/06/02 06:44:17;;;;;;;20.65;9.80;;;16.00;99.90;;;;;;5064317;28;20033;-76
2023/06/02 06:46:42;;;;;;;18.55;10.30;;;16.00;99.90;;;;;;5050650;28;20132;-75
2023/06/02 06:49:08;;;;;;;24.70;9.77;;;16.10;99.90;;;;;;5049334;28;20036;-75
2023/06/02 06:51:36;;;;;;;21.48;10.57;;;16.10;99.90;;;;;;5066265;28;20090;-75
2023/06/02 06:54:01;;;;;;;17.23;9.85;;;16.20;99.90;;;;;;5067707;28;20020;-75
2023/06/02 06:56:27;;;;;;;22.27;10.35;;;16.30;99.90;;;;;;5067173;28;20089;-72
2023/06/02 06:58:53;;;;;;;20.55;9.88;;;16.40;99.90;;;;;;5051361;28;20459;-74
2023/06/02 07:01:18;;;;;;;17.42;9.63;;;16.50;99.90;;;;;;5049510;28;20184;-77
2023/06/02 07:03:44;;;;;;;27.38;11.57;;;16.60;99.90;;;;;;5070445;28;20526;-77
2023/06/02 07:06:10;;;;;;;23.17;10.73;;;16.70;99.90;;;;;;5055879;28;20056;-78
2023/06/02 07:08:36;;;;;;;20.45;9.40;;;16.80;99.90;;;;;;5060806;28;20037;-77
2023/06/02 07:11:01;;;;;;;19.48;10.20;;;17.10;99.90;;;;;;5051221;28;20044;-78
2023/06/02 07:13:27;;;;;;;20.20;10.98;;;17.20;99.90;;;;;;5057763;28;20054;-73
2023/06/02 07:15:53;;;;;;;17.70;9.80;;;17.20;99.90;;;;;;5061191;28;20043;-72
2023/06/02 07:18:19;;;;;;;18.65;10.07;;;17.20;99.90;;;;;;5055308;28;20112;-71
2023/06/02 07:20:44;;;;;;;28.00;10.07;;;17.40;99.90;;;;;;5055154;28;20067;-73
2023/06/02 07:23:10;;;;;;;19.67;10.32;;;17.50;99.90;;;;;;5061472;28;20064;-75
2023/06/02 07:25:36;;;;;;;22.45;10.43;;;17.60;99.90;;;;;;5051571;28;20035;-73
2023/06/02 07:28:05;;;;;;;20.77;10.02;;;17.50;99.90;;;;;;5049073;28;20025;-77
2023/06/02 07:30:31;;;;;;;18.50;9.50;;;17.40;99.90;;;;;;5055514;28;20429;-82
2023/06/02 07:32:57;;;;;;;18.08;9.95;;;17.40;99.90;;;;;;5069516;28;20418;-77
2023/06/02 07:35:23;;;;;;;16.80;10.02;;;17.50;99.90;;;;;;5069066;28;20028;-75
2023/06/02 07:37:53;;;;;;;19.70;9.93;;;17.50;99.90;;;;;;5069724;28;20028;-76
2023/06/02 07:40:19;;;;;;;18.67;10.18;;;17.50;99.90;;;;;;5066340;28;20040;-76
2023/06/02 07:42:46;;;;;;;22.83;10.02;;;17.60;99.90;;;;;;5067211;28;20416;-79
2023/06/02 07:45:12;;;;;;;20.77;9.77;;;17.80;99.90;;;;;;5067446;28;20033;-79
2023/06/02 07:47:37;;;;;;;25.00;10.00;;;18.00;99.90;;;;;;5067315;28;20482;-74
2023/06/02 07:50:03;;;;;;;17.08;9.57;;;18.20;99.90;;;;;;5048262;28;20086;-75
2023/06/02 07:52:29;;;;;;;21.92;10.02;;;18.40;99.90;;;;;;5047855;28;20036;-75
2023/06/02 07:54:55;;;;;;;17.15;9.70;;;18.50;99.90;;;;;;5049436;28;20032;-82
2023/06/02 07:57:20;;;;;;;21.77;9.82;;;18.60;99.90;;;;;;5057032;28;20469;-76
2023/06/02 07:59:46;;;;;;;20.30;10.32;;;18.60;99.90;;;;;;5066953;28;20461;-80
2023/06/02 08:02:12;;;;;;;18.60;10.02;;;18.50;99.90;;;;;;5046933;28;20057;-78
2023/06/02 08:04:40;;;;;;;26.08;10.60;;;18.50;99.90;;;;;;5065126;28;20664;-78
2023/06/02 08:07:06;;;;;;;17.25;9.68;;;18.70;99.90;;;;;;5068620;28;20024;-75
2023/06/02 08:09:33;;;;;;;21.40;10.48;;;18.80;99.90;;;;;;5054186;28;20389;-78
2023/06/02 08:11:59;;;;;;;21.50;9.75;;;18.80;99.90;;;;;;5058381;28;20037;-78
2023/06/02 08:14:28;;;;;;;22.55;9.90;;;18.90;99.90;;;;;;5068424;28;20044;-79
2023/06/02 08:16:55;;;;;;;20.40;9.98;;;18.70;99.90;;;;;;5066952;28;20484;-79
2023/06/02 08:19:22;;;;;;;24.95;10.48;;;18.80;99.90;;;;;;5064698;28;20032;-77
2023/06/02 08:21:48;;;;;;;17.35;9.73;;;18.90;99.90;;;;;;5058830;28;20093;-73
2023/06/02 08:24:15;;;;;;;19.73;10.40;;;18.90;99.90;;;;;;5066627;28;20029;-77
2023/06/02 08:26:41;;;;;;;18.70;9.30;;;19.10;99.90;;;;;;5068138;28;20058;-76
2023/06/02 08:29:10;;;;;;;21.80;9.48;;;19.40;99.90;;;;;;5060329;28;20109;-75
2023/06/02 08:31:36;;;;;;;17.58;9.00;;;19.70;99.90;;;;;;5062982;28;20153;-77
2023/06/02 08:34:03;;;;;;;20.20;9.60;;;19.70;99.90;;;;;;5068568;28;20086;-78
2023/06/02 08:36:29;;;;;;;16.63;9.15;;;19.90;99.90;;;;;;5068723;28;20020;-78
2023/06/02 08:38:55;;;;;;;16.10;10.05;;;20.10;99.90;;;;;;5069013;28;20487;-79
2023/06/02 08:41:22;;;;;;;29.42;10.35;;;20.30;99.90;;;;;;5058493;28;20584;-82
2023/06/02 08:43:48;;;;;;;18.17;7.93;;;20.40;99.90;;;;;;5048400;28;20452;-82
2023/06/02 08:46:15;;;;;;;24.25;10.50;;;20.50;99.90;;;;;;5048227;28;20032;-82
2023/06/02 08:48:47;;;;;;;16.23;9.00;;;20.50;99.90;;;;;;5050399;28;20044;-79
2023/06/02 08:51:37;;;;;;;18.33;9.32;;;20.50;99.90;;;;;;5048062;28;20033;-80
2023/06/02 08:54:06;;;;;;;20.85;9.52;;;20.60;99.90;;;;;;5058241;28;20497;-79
2023/06/02 08:56:32;;;;;;;25.98;9.85;;;20.60;99.90;;;;;;5067744;28;20151;-78
2023/06/02 08:58:57;;;;;;;17.83;9.10;;;20.70;99.90;;;;;;5067672;28;20124;-81
2023/06/02 09:01:23;;;;;;;25.25;9.90;;;20.80;99.90;;;;;;5066485;28;20296;-74
2023/06/02 09:03:49;;;;;;;20.33;8.73;;;20.90;99.90;;;;;;5068247;28;20501;-76
2023/06/02 09:06:21;;;;;;;21.65;9.32;;;20.90;99.90;;;;;;5067794;28;20043;-80
2023/06/02 09:08:58;;;;;;;22.08;9.32;;;20.80;99.90;;;;;;5068715;28;20353;-78
2023/06/02 09:11:25;;;;;;;17.55;9.10;;;20.80;99.90;;;;;;5064534;28;20365;-81
2023/06/02 09:13:52;;;;;;;20.13;8.70;;;20.70;99.90;;;;;;5071239;28;20081;-80
2023/06/02 09:16:20;;;;;;;19.05;9.02;;;20.90;99.90;;;;;;5053893;28;20033;-80
2023/06/02 09:18:59;;;;;;;17.35;8.02;;;21.30;99.90;;;;;;5052484;28;20033;-80
2023/06/02 09:21:28;;;;;;;21.38;8.15;;;21.70;99.90;;;;;;5059669;28;20056;-80
2023/06/02 09:23:55;;;;;;;14.82;8.57;;;22.00;99.90;;;;;;5057310;28;20426;-82
2023/06/02 09:26:28;;;;;;;15.05;8.80;;;22.00;99.90;;;;;;5051491;28;20474;-79
2023/06/02 09:29:12;;;;;;;13.70;8.30;;;22.10;99.90;;;;;;5052018;28;20070;-75
2023/06/02 09:31:58;;;;;;;17.33;7.95;;;22.20;99.90;;;;;;5052219;28;20047;-79
2023/06/02 09:34:33;;;;;;;31.67;9.63;;;22.30;99.90;;;;;;5051386;28;20482;-76
2023/06/02 09:37:10;;;;;;;16.65;8.15;;;22.20;98.40;;;;;;5065710;28;20025;-78
2023/06/02 09:39:42;;;;;;;37.08;9.85;;;22.10;99.90;;;;;;5069135;28;20388;-80
2023/06/02 09:42:08;;;;;;;14.98;7.80;;;22.50;99.90;;;;;;5069583;28;20044;-84
2023/06/02 09:44:35;;;;;;;21.55;7.88;;;22.80;98.90;;;;;;5071089;28;20126;-79
2023/06/02 09:47:03;;;;;;;20.02;7.53;;;22.70;97.90;;;;;;5071777;28;20047;-75
2023/06/02 09:49:39;;;;;;;19.63;7.38;;;22.80;98.00;;;;;;5059343;28;20032;-77
2023/06/02 09:52:16;;;;;;;30.15;8.93;;;22.70;96.40;;;;;;5051909;28;20048;-78
2023/06/02 09:54:46;;;;;;;16.33;8.50;;;22.60;97.60;;;;;;5051623;28;20437;-75
2023/06/02 09:57:13;;;;;;;23.00;8.68;;;22.60;98.10;;;;;;5049410;28;20505;-76
2023/06/02 09:59:40;;;;;;;28.30;15.88;;;22.40;97.10;;;;;;5051632;28;20082;-80
2023/06/02 10:02:09;;;;;;;13.43;8.07;;;22.60;98.00;;;;;;5051174;28;20053;-77
2023/06/02 10:04:36;;;;;;;11.52;7.53;;;22.70;96.40;;;;;;5059814;28;20036;-76
2023/06/02 10:07:21;;;;;;;14.13;7.47;;;22.80;96.60;;;;;;5071253;28;20024;-76
2023/06/02 10:10:09;;;;;;;17.25;8.07;;;23.00;97.70;;;;;;5067289;28;20028;-72
2023/06/02 10:12:55;;;;;;;17.27;7.57;;;23.50;97.20;;;;;;5049410;28;20048;-77
2023/06/02 10:15:45;;;;;;;14.27;8.02;;;24.00;96.20;;;;;;5009164;28;20037;-83
2023/06/02 10:18:30;;;;;;;16.45;8.32;;;23.80;92.00;;;;;;5052648;28;20025;-81
2023/06/02 10:21:33;;;;;;;16.27;8.32;;;23.40;94.60;;;;;;5070736;28;20028;-80
2023/06/02 10:24:05;;;;;;;14.95;7.75;;;23.20;93.90;;;;;;5070951;28;20468;-79
2023/06/02 10:27:02;;;;;;;19.65;7.63;;;23.10;95.60;;;;;;5070377;28;20055;-80
2023/06/02 10:29:32;;;;;;;15.75;8.10;;;23.40;93.70;;;;;;5069473;28;20033;-81
2023/06/02 10:31:58;;;;;;;19.80;8.05;;;23.60;92.80;;;;;;5056110;28;20577;-82
2023/06/02 10:34:53;;;;;;;14.73;7.55;;;23.70;94.50;;;;;;5050165;28;20082;-82
2023/06/02 10:37:21;;;;;;;14.57;7.60;;;24.10;93.00;;;;;;5062756;28;20048;-80
2023/06/02 10:39:51;;;;;;;13.40;7.10;;;23.90;91.70;;;;;;5050538;28;20033;-80
2023/06/02 10:42:18;;;;;;;13.52;7.05;;;24.00;93.70;;;;;;5052460;28;20044;-82
2023/06/02 10:44:44;;;;;;;15.32;8.23;;;24.10;92.50;;;;;;5062161;28;20029;-82
2023/06/02 10:47:18;;;;;;;14.43;7.35;;;24.10;92.10;;;;;;5065206;28;20431;-83
2023/06/02 10:50:03;;;;;;;17.15;7.43;;;24.20;93.00;;;;;;5068167;28;20021;-82
2023/06/02 10:52:30;;;;;;;19.02;8.18;;;24.40;91.50;;;;;;5068318;28;20036;-83
2023/06/02 10:55:08;;;;;;;14.15;7.90;;;24.20;93.60;;;;;;5067986;28;20473;-82
2023/06/02 10:57:52;;;;;;;12.43;6.82;;;24.30;91.70;;;;;;5054920;28;20032;-81
2023/06/02 11:00:36;;;;;;;12.00;7.07;;;24.60;90.40;;;;;;5065902;28;20028;-81
2023/06/02 11:03:02;;;;;;;12.80;7.38;;;24.80;90.20;;;;;;5058579;28;20057;-80
2023/06/02 11:05:30;;;;;;;12.65;7.00;;;24.80;88.60;;;;;;5066319;28;20024;-81
2023/06/02 11:08:11;;;;;;;11.95;7.50;;;24.50;89.40;;;;;;5054018;28;20040;-82
2023/06/02 11:10:48;;;;;;;14.82;7.20;;;24.70;89.10;;;;;;5067002;28;20044;-80
2023/06/02 11:13:14;;;;;;;11.60;7.15;;;24.80;86.50;;;;;;5052282;28;20447;-83
2023/06/02 11:16:00;;;;;;;11.95;6.80;;;24.50;84.60;;;;;;5063211;28;20024;-81
2023/06/02 11:18:28;;;;;;;11.27;6.43;;;24.50;86.90;;;;;;5044972;28;20567;-82
2023/06/02 11:21:17;;;;;;;9.45;6.03;;;24.70;85.60;;;;;;5068606;28;20064;-83
2023/06/02 11:23:42;;;;;;;19.13;6.97;;;24.70;81.80;;;;;;5068803;28;20036;-82
2023/06/02 11:26:21;;;;;;;12.55;6.75;;;24.70;85.40;;;;;;5063096;28;20036;-82
2023/06/02 11:28:47;;;;;;;13.70;6.78;;;24.80;82.90;;;;;;5064495;28;20119;-81
2023/06/02 11:31:17;;;;;;;9.18;6.30;;;24.70;82.80;;;;;;5061839;28;20072;-83
2023/06/02 11:33:48;;;;;;;20.77;6.40;;;24.70;82.10;;;;;;5058753;28;20028;-81
2023/06/02 11:36:16;;;;;;;10.00;6.20;;;25.10;86.40;;;;;;5079565;28;20021;-81
2023/06/02 11:38:42;;;;;;;11.15;6.65;;;25.00;80.40;;;;;;5065409;28;20031;-72
2023/06/02 11:41:12;;;;;;;11.90;6.65;;;24.40;84.90;;;;;;5068552;28;20049;-74
2023/06/02 11:43:43;;;;;;;17.93;6.50;;;24.50;87.70;;;;;;5066412;28;20797;-74
2023/06/02 11:46:14;;;;;;;9.73;6.53;;;24.60;84.80;;;;;;5068493;28;20032;-74
2023/06/02 11:48:40;;;;;;;11.50;6.63;;;25.00;88.80;;;;;;5068464;28;20032;-74
2023/06/02 11:51:11;;;;;;;17.17;6.93;;;25.40;84.80;;;;;;5063341;28;20036;-74
2023/06/02 11:53:38;;;;;;;11.55;7.18;;;25.40;83.40;;;;;;5066543;28;20610;-75
2023/06/02 11:56:15;;;;;;;13.18;6.80;;;25.40;82.50;;;;;;5062923;28;20402;-75
2023/06/02 11:58:48;;;;;;;12.23;6.90;;;25.60;85.50;;;;;;5057100;28;20037;-75
2023/06/02 12:01:17;;;;;;;12.55;6.45;;;25.50;86.80;;;;;;5027875;28;20049;-77
2023/06/02 12:04:01;;;;;;;10.90;6.95;;;25.70;79.00;;;;;;5028322;28;20207;-75
2023/06/02 12:06:28;;;;;;;20.00;7.20;;;25.60;77.70;;;;;;5062847;28;20033;-74
2023/06/02 12:08:54;;;;;;;14.25;6.07;;;25.20;79.40;;;;;;5031436;28;20042;-75
2023/06/02 12:11:22;;;;;;;13.98;6.28;;;24.90;83.10;;;;;;5032427;28;20029;-75
2023/06/02 12:13:59;;;;;;;11.35;6.30;;;25.20;86.40;;;;;;5065589;28;20055;-75
2023/06/02 12:16:26;;;;;;;11.60;6.20;;;25.80;86.10;;;;;;5046148;28;20029;-75
2023/06/02 12:18:54;;;;;;;12.68;6.40;;;26.10;78.80;;;;;;5025569;28;20135;-74
2023/06/02 12:21:30;;;;;;;10.35;6.15;;;26.10;78.50;;;;;;5033499;28;20025;-74
2023/06/02 12:23:57;;;;;;;12.65;6.13;;;25.80;80.70;;;;;;5063265;28;20025;-74
2023/06/02 12:26:27;;;;;;;10.23;5.95;;;25.80;80.40;;;;;;5047165;28;20071;-74
2023/06/02 12:28:53;;;;;;;11.10;6.18;;;25.90;77.80;;;;;;5045962;28;20037;-75
2023/06/02 12:31:19;;;;;;;11.30;6.55;;;26.00;73.50;;;;;;5034017;28;20037;-77
2023/06/02 12:33:45;;;;;;;11.70;5.90;;;26.30;78.10;;;;;;5026263;28;20033;-75
2023/06/02 12:36:13;;;;;;;11.25;5.55;;;26.30;72.50;;;;;;5031145;28;20120;-74
2023/06/02 12:38:40;;;;;;;9.68;5.30;;;26.30;73.70;;;;;;5043031;28;20017;-75
2023/06/02 12:41:11;;;;;;;12.63;6.25;;;26.30;73.00;;;;;;5039693;28;20017;-74
2023/06/02 12:43:40;;;;;;;13.02;5.75;;;26.10;73.80;;;;;;5037636;28;20033;-74